Time;durP1;ratioP1;P1;durP2;ratioP2;P2;SDS_P1;SDS_P2;PMS_P1;PMS_P2;Temp;Humidity;BMP_temperature;BMP_pressure;BME280_temperature;BME280_humidity;BME280_pressure;Samples;Min_cycle;Max_cycle;Signal;HPM_P1;HPM_P2
2021/04/07 00:05:09;;;;;;;16.85;10.70;;;;;;;5.92;100.00;93258.50;10444858;28;20037;-76
2021/04/07 00:10:15;;;;;;;14.65;9.90;;;;;;;5.91;100.00;93250.78;10442783;28;20046;-76
2021/04/07 00:15:20;;;;;;;16.38;11.48;;;;;;;5.94;100.00;93261.69;10443044;28;20041;-76
2021/04/07 00:20:24;;;;;;;17.27;10.50;;;;;;;5.80;100.00;93253.56;10442602;28;20375;-76
2021/04/07 00:25:26;;;;;;;17.00;11.32;;;;;;;5.85;100.00;93247.38;10443677;28;20690;-76
2021/04/07 00:30:28;;;;;;;18.98;10.23;;;;;;;5.84;100.00;93245.78;10443684;28;20033;-76
2021/04/07 00:35:29;;;;;;;19.83;11.38;;;;;;;5.40;100.00;93260.78;10443701;28;20059;-76
2021/04/07 00:40:30;;;;;;;24.20;12.45;;;;;;;4.91;100.00;93240.28;10444111;28;20067;-76
2021/04/07 00:45:31;;;;;;;19.40;11.13;;;;;;;5.01;100.00;93215.47;10443857;28;20025;-76
2021/04/07 00:50:32;;;;;;;21.35;12.75;;;;;;;4.99;100.00;93226.41;10476456;28;20035;-76
2021/04/07 00:55:35;;;;;;;23.83;13.30;;;;;;;4.84;100.00;93219.28;10484693;28;20033;-76
2021/04/07 01:00:36;;;;;;;20.77;11.73;;;;;;;5.00;100.00;93197.94;10484609;28;20498;-76
2021/04/07 01:05:36;;;;;;;28.80;12.70;;;;;;;4.93;100.00;93201.69;10483207;28;20037;-76
2021/04/07 01:10:37;;;;;;;21.83;12.98;;;;;;;4.67;100.00;93195.69;10485256;28;20086;-76
2021/04/07 01:15:38;;;;;;;24.20;13.27;;;;;;;4.42;100.00;93192.13;10482006;28;20577;-77
2021/04/07 01:20:38;;;;;;;26.25;13.75;;;;;;;4.46;100.00;93187.03;10484242;28;20506;-77
2021/04/07 01:25:39;;;;;;;24.15;13.20;;;;;;;4.60;100.00;93211.16;10485697;28;20028;-76
2021/04/07 01:30:48;;;;;;;26.20;13.32;;;;;;;4.76;100.00;93215.34;10486092;28;20024;-77
2021/04/07 01:35:49;;;;;;;27.80;14.10;;;;;;;4.67;100.00;93208.22;10485160;28;20117;-76
2021/04/07 01:40:51;;;;;;;20.42;12.45;;;;;;;4.41;100.00;93227.75;10488895;28;20407;-76
2021/04/07 01:45:51;;;;;;;28.27;14.27;;;;;;;4.36;100.00;93229.63;10492411;28;20447;-76
2021/04/07 01:50:52;;;;;;;21.83;12.05;;;;;;;4.66;100.00;93227.91;10491381;28;20025;-76
2021/04/07 01:55:52;;;;;;;24.20;12.63;;;;;;;4.64;100.00;93243.38;10492042;28;20040;-76
2021/04/07 02:00:53;;;;;;;34.42;13.70;;;;;;;4.52;100.00;93235.69;10492398;28;20413;-76
2021/04/07 02:05:53;;;;;;;25.90;13.20;;;;;;;4.41;100.00;93249.03;10490723;28;20059;-76
2021/04/07 02:10:53;;;;;;;23.80;13.57;;;;;;;4.26;100.00;93244.53;10491603;28;20033;-76
2021/04/07 02:15:54;;;;;;;29.70;14.60;;;;;;;4.00;100.00;93254.44;10491003;28;20037;-76
2021/04/07 02:20:55;;;;;;;28.13;13.93;;;;;;;4.00;100.00;93248.34;10491099;28;20275;-76
2021/04/07 02:25:56;;;;;;;25.20;14.43;;;;;;;3.34;100.00;93269.34;10491603;28;20666;-76
2021/04/07 02:30:56;;;;;;;24.05;13.52;;;;;;;3.27;100.00;93266.16;10491966;28;20043;-76
2021/04/07 02:35:57;;;;;;;23.40;14.30;;;;;;;3.18;100.00;93292.44;10490526;28;20051;-76
2021/04/07 02:40:57;;;;;;;22.35;14.05;;;;;;;3.05;100.00;93296.34;10491372;28;20119;-76
2021/04/07 02:45:59;;;;;;;23.77;14.40;;;;;;;2.68;100.00;93277.94;10493200;28;20029;-77
2021/04/07 02:50:59;;;;;;;17.45;10.60;;;;;;;2.55;100.00;93293.28;10491056;28;20029;-77
2021/04/07 02:55:59;;;;;;;12.80;8.03;;;;;;;1.92;100.00;93308.28;10491634;28;20024;-75
2021/04/07 03:01:00;;;;;;;16.87;8.27;;;;;;;1.95;100.00;93326.31;10490070;28;20464;-75
2021/04/07 03:06:00;;;;;;;9.87;6.47;;;;;;;1.47;100.00;93336.81;10489976;28;20106;-76
2021/04/07 03:11:00;;;;;;;10.15;5.28;;;;;;;1.35;100.00;93339.59;10488510;28;20032;-76
2021/04/07 03:16:01;;;;;;;6.90;5.30;;;;;;;1.10;100.00;93340.91;10487077;28;20400;-76
2021/04/07 03:21:01;;;;;;;5.03;3.08;;;;;;;0.71;100.00;93348.16;10488770;28;20372;-76
2021/04/07 03:26:02;;;;;;;5.40;4.05;;;;;;;0.48;100.00;93355.28;10490547;28;20104;-76
2021/04/07 03:31:03;;;;;;;3.45;2.65;;;;;;;0.37;100.00;93359.63;10488810;28;20032;-76
2021/04/07 03:36:05;;;;;;;3.22;2.05;;;;;;;0.37;100.00;93374.69;10488525;28;20059;-77
2021/04/07 03:41:05;;;;;;;2.97;2.22;;;;;;;0.17;100.00;93392.66;10487656;28;20078;-76
2021/04/07 03:46:06;;;;;;;2.13;1.90;;;;;;;0.21;100.00;93392.97;10488861;28;20036;-77
2021/04/07 03:51:06;;;;;;;1.58;1.25;;;;;;;0.20;100.00;93420.44;10489292;28;20021;-76
2021/04/07 03:56:07;;;;;;;2.57;2.00;;;;;;;0.21;100.00;93445.81;10488248;28;20468;-75
2021/04/07 04:01:07;;;;;;;2.20;1.45;;;;;;;0.21;100.00;93451.09;10487104;28;20274;-76
2021/04/07 04:06:08;;;;;;;2.95;2.10;;;;;;;0.26;100.00;93458.28;10486361;28;20824;-75
2021/04/07 04:11:08;;;;;;;2.13;1.52;;;;;;;0.30;100.00;93486.63;10485269;28;20032;-72
2021/04/07 04:16:08;;;;;;;2.70;1.92;;;;;;;0.15;100.00;93496.97;10485599;28;20029;-72
2021/04/07 04:21:09;;;;;;;2.85;1.90;;;;;;;0.02;100.00;93521.06;10465814;28;20483;-72
2021/04/07 04:26:09;;;;;;;2.88;1.80;;;;;;;0.07;100.00;93534.31;10469676;28;20469;-72
2021/04/07 04:31:09;;;;;;;2.47;2.27;;;;;;;0.20;100.00;93547.25;10484551;28;20029;-72
2021/04/07 04:36:10;;;;;;;2.20;1.70;;;;;;;0.28;100.00;93557.44;10483881;28;20102;-72
2021/04/07 04:41:10;;;;;;;4.03;2.50;;;;;;;-0.03;100.00;93577.22;10482614;28;20278;-72
2021/04/07 04:46:11;;;;;;;4.60;2.23;;;;;;;0.11;100.00;93578.53;10457313;28;20020;-72
2021/04/07 04:51:11;;;;;;;3.00;2.03;;;;;;;-0.06;100.00;93582.97;10442521;28;20186;-72
2021/04/07 04:56:11;;;;;;;5.10;3.27;;;;;;;0.10;100.00;93578.78;10439221;28;20037;-72
2021/04/07 05:01:12;;;;;;;5.47;2.63;;;;;;;0.10;100.00;93587.50;10439541;28;20108;-72
2021/04/07 05:06:12;;;;;;;4.32;2.95;;;;;;;0.17;100.00;93600.56;10439675;28;20056;-72
2021/04/07 05:11:13;;;;;;;3.95;3.20;;;;;;;0.14;100.00;93614.22;10441040;28;20029;-72
2021/04/07 05:16:13;;;;;;;3.75;3.08;;;;;;;-0.22;100.00;93606.44;10457428;28;20033;-72
2021/04/07 05:21:13;;;;;;;2.77;2.53;;;;;;;-0.63;100.00;93589.75;10441808;28;20090;-72
2021/04/07 05:26:14;;;;;;;5.50;4.13;;;;;;;-0.93;100.00;93611.81;10441487;28;20279;-72
2021/04/07 05:31:15;;;;;;;11.30;4.57;;;;;;;-0.80;100.00;93605.50;10450362;28;20040;-73
2021/04/07 05:36:15;;;;;;;5.30;3.95;;;;;;;-0.74;100.00;93620.41;10482988;28;20291;-73
2021/04/07 05:41:17;;;;;;;6.35;3.83;;;;;;;-0.48;100.00;93622.78;10480663;28;20035;-72
2021/04/07 05:46:17;;;;;;;5.45;3.65;;;;;;;-0.44;100.00;93643.19;10480074;28;20105;-73
2021/04/07 05:51:18;;;;;;;4.20;3.80;;;;;;;-0.53;100.00;93661.25;10480922;28;20107;-73
2021/04/07 05:56:18;;;;;;;8.25;4.85;;;;;;;-0.34;100.00;93661.09;10479381;28;20028;-73
2021/04/07 06:01:18;;;;;;;7.82;5.57;;;;;;;-0.77;100.00;93667.53;10439071;28;20040;-73
2021/04/07 06:06:22;;;;;;;8.03;4.60;;;;;;;-0.88;100.00;93614.56;10440848;28;20135;-73
2021/04/07 06:11:22;;;;;;;12.60;6.72;;;;;;;-0.49;100.00;93642.28;10440849;28;20389;-73
2021/04/07 06:16:23;;;;;;;7.40;5.13;;;;;;;-0.26;100.00;93652.03;10450110;28;20033;-73
2021/04/07 06:21:23;;;;;;;5.88;4.95;;;;;;;-0.32;100.00;93669.59;10482717;28;20025;-74
2021/04/07 06:26:23;;;;;;;10.07;5.80;;;;;;;-0.14;100.00;93683.69;10485724;28;20820;-73
2021/04/07 06:31:24;;;;;;;8.07;5.67;;;;;;;-0.18;100.00;93686.00;10487971;28;20102;-73
2021/04/07 06:36:24;;;;;;;4.43;3.73;;;;;;;-0.11;100.00;93691.94;10488984;28;20033;-73
2021/04/07 06:41:24;;;;;;;5.43;3.60;;;;;;;-0.09;100.00;93699.63;10488926;28;20111;-73
2021/04/07 06:46:25;;;;;;;6.63;4.33;;;;;;;-0.08;100.00;93706.53;10489410;28;20881;-73
2021/04/07 06:51:26;;;;;;;6.47;4.38;;;;;;;-0.08;100.00;93722.38;10488690;28;20882;-73
2021/04/07 06:56:27;;;;;;;6.93;4.65;;;;;;;-0.26;100.00;93726.75;10489179;28;20037;-73
2021/04/07 07:01:27;;;;;;;6.95;4.20;;;;;;;-0.20;100.00;93746.94;10488343;28;20460;-73
2021/04/07 07:06:28;;;;;;;8.40;4.80;;;;;;;-0.53;100.00;93750.97;10487340;28;20124;-73
2021/04/07 07:11:28;;;;;;;7.13;4.75;;;;;;;-0.47;100.00;93756.38;10488856;28;20442;-73
2021/04/07 07:16:29;;;;;;;4.97;3.83;;;;;;;-0.54;100.00;93762.56;10487408;28;20089;-72
2021/04/07 07:21:29;;;;;;;7.27;5.07;;;;;;;-0.42;100.00;93764.38;10486628;28;20025;-72
2021/04/07 07:26:40;;;;;;;8.70;4.87;;;;;;;-0.47;100.00;93767.72;10485391;28;20372;-71
2021/04/07 07:31:40;;;;;;;8.07;5.03;;;;;;;-0.47;100.00;93782.78;10486818;28;20032;-71
2021/04/07 07:36:41;;;;;;;7.30;5.03;;;;;;;-0.53;100.00;93785.28;10486797;28;20040;-74
2021/04/07 07:41:41;;;;;;;10.25;5.15;;;;;;;-0.60;100.00;93805.69;10486663;28;20032;-71
2021/04/07 07:46:42;;;;;;;9.90;5.22;;;;;;;-0.57;100.00;93805.22;10486379;28;20442;-72
2021/04/07 07:51:47;;;;;;;10.40;7.32;;;;;;;-0.40;100.00;93820.41;10486847;28;20044;-72
2021/04/07 07:56:49;;;;;;;12.73;6.47;;;;;;;-0.10;100.00;93824.78;10486446;28;20091;-72
2021/04/07 08:01:49;;;;;;;11.02;6.95;;;;;;;-0.01;100.00;93836.63;10486197;28;20124;-73
2021/04/07 08:06:50;;;;;;;10.50;5.65;;;;;;;0.34;100.00;93839.25;10485622;28;20046;-73
2021/04/07 08:11:51;;;;;;;9.25;6.38;;;;;;;0.61;100.00;93851.97;10485883;28;20063;-72
2021/04/07 08:16:53;;;;;;;8.90;6.05;;;;;;;0.80;100.00;93842.03;10485193;28;20496;-73
2021/04/07 08:21:58;;;;;;;10.23;5.70;;;;;;;0.98;100.00;93825.19;10484440;28;20151;-73
2021/04/07 08:26:58;;;;;;;9.63;6.60;;;;;;;1.19;100.00;93838.81;10483812;28;20033;-73
2021/04/07 08:31:59;;;;;;;9.27;6.65;;;;;;;1.28;100.00;93852.47;10483115;28;20372;-72
2021/04/07 08:36:59;;;;;;;11.13;7.22;;;;;;;1.12;100.00;93841.59;10483289;28;20079;-72
2021/04/07 08:42:00;;;;;;;11.43;7.28;;;;;;;0.80;100.00;93851.84;10482404;28;20113;-73
2021/04/07 08:47:00;;;;;;;12.90;7.93;;;;;;;1.10;100.00;93848.94;10482493;28;20047;-72
2021/04/07 08:52:15;;;;;;;10.27;7.47;;;;;;;1.34;100.00;93822.38;10482385;28;20729;-72
2021/04/07 08:57:43;;;;;;;13.57;8.07;;;;;;;1.63;100.00;93868.19;10482500;28;20381;-72
2021/04/07 09:02:58;;;;;;;17.60;9.95;;;;;;;1.42;100.00;93877.59;10479547;28;20106;-72
2021/04/07 09:08:00;;;;;;;10.48;7.38;;;;;;;1.22;100.00;93875.38;10482935;28;20070;-72
2021/04/07 09:13:00;;;;;;;10.90;8.02;;;;;;;1.39;100.00;93904.56;10483422;28;20068;-72
2021/04/07 09:18:00;;;;;;;11.10;8.57;;;;;;;1.36;100.00;93889.94;10483252;28;20033;-72
2021/04/07 09:23:28;;;;;;;13.97;8.40;;;;;;;1.43;100.00;93884.50;10483145;28;20363;-72
2021/04/07 09:28:34;;;;;;;12.32;9.10;;;;;;;1.60;100.00;93873.94;10476558;28;20378;-72
2021/04/07 09:33:37;;;;;;;12.88;8.73;;;;;;;1.63;100.00;93896.50;10484684;28;20415;-72
2021/04/07 09:38:43;;;;;;;11.50;7.68;;;;;;;1.73;100.00;93919.72;10483065;28;20094;-72
2021/04/07 09:43:44;;;;;;;13.45;8.18;;;;;;;1.49;100.00;93925.13;10481527;28;20039;-74
2021/04/07 09:48:50;;;;;;;12.93;8.80;;;;;;;1.34;100.00;93930.91;10482534;28;20034;-72
2021/04/07 09:53:52;;;;;;;15.00;9.43;;;;;;;1.24;100.00;93925.44;10483018;28;20035;-72
2021/04/07 09:58:52;;;;;;;19.10;11.05;;;;;;;1.10;100.00;93932.84;10480833;28;20025;-72
2021/04/07 10:03:54;;;;;;;18.10;9.60;;;;;;;1.07;100.00;93949.97;10489998;28;20391;-72
2021/04/07 10:09:08;;;;;;;12.50;9.50;;;;;;;1.34;100.00;93944.16;10487611;28;20057;-72
2021/04/07 10:14:10;;;;;;;14.50;8.95;;;;;;;1.29;100.00;93944.06;10488583;28;20032;-72
2021/04/07 10:19:11;;;;;;;11.80;7.40;;;;;;;1.09;100.00;93957.69;10488664;28;20036;-72
2021/04/07 10:24:16;;;;;;;13.13;7.95;;;;;;;0.65;100.00;93952.81;10489439;28;20028;-72
2021/04/07 10:29:24;;;;;;;16.67;9.88;;;;;;;1.05;100.00;93964.47;10489043;28;20035;-72
2021/04/07 10:34:28;;;;;;;11.18;7.63;;;;;;;1.24;100.00;93976.53;10488040;28;20408;-72
2021/04/07 10:39:37;;;;;;;11.45;8.02;;;;;;;1.51;100.00;93973.38;10488060;28;20597;-72
2021/04/07 10:44:37;;;;;;;11.57;7.43;;;;;;;1.70;100.00;93973.97;10488219;28;20016;-71
2021/04/07 10:49:37;;;;;;;14.38;7.45;;;;;;;2.32;100.00;93975.06;10489676;28;20483;-73
2021/04/07 10:54:38;;;;;;;11.60;7.73;;;;;;;2.50;100.00;93982.78;10488673;28;20021;-72
2021/04/07 10:59:38;;;;;;;15.10;9.13;;;;;;;2.92;100.00;93994.81;10489088;28;20058;-72
2021/04/07 11:04:38;;;;;;;11.33;6.83;;;;;;;3.34;100.00;93983.69;10488592;28;20082;-72
2021/04/07 11:09:47;;;;;;;9.88;7.03;;;;;;;3.69;100.00;93982.50;10488914;28;20129;-72
2021/04/07 11:14:53;;;;;;;8.05;6.30;;;;;;;3.81;100.00;93979.75;10498548;28;20078;-72
2021/04/07 11:19:54;;;;;;;10.48;7.50;;;;;;;3.94;100.00;93986.50;10487443;28;20041;-72
2021/04/07 11:24:55;;;;;;;8.27;6.47;;;;;;;4.34;100.00;93981.84;10486233;28;20033;-72
2021/04/07 11:29:55;;;;;;;10.15;5.70;;;;;;;4.64;100.00;93980.50;10486526;28;20032;-72
2021/04/07 11:40:11;;;;;;;8.48;6.57;;;;;;;4.10;100.00;93990.13;10485484;28;20086;-72
2021/04/07 11:45:13;;;;;;;10.02;6.95;;;;;;;4.33;100.00;93975.72;10485900;28;20021;-72
2021/04/07 11:50:13;;;;;;;10.38;7.38;;;;;;;4.67;100.00;93979.97;10485859;28;20035;-72
2021/04/07 11:55:14;;;;;;;9.63;7.57;;;;;;;4.70;100.00;93990.13;10484611;28;20035;-72
2021/04/07 12:00:15;;;;;;;8.60;7.07;;;;;;;4.53;100.00;93999.03;10486222;28;20371;-72
2021/04/07 12:05:19;;;;;;;8.38;6.90;;;;;;;4.61;100.00;93990.59;10485519;28;20016;-72
2021/04/07 12:10:22;;;;;;;12.23;7.13;;;;;;;4.99;100.00;93987.94;10485780;28;20032;-72
2021/04/07 12:15:22;;;;;;;11.73;6.38;;;;;;;5.23;100.00;93988.34;10485830;28;20116;-72
2021/04/07 12:20:24;;;;;;;10.83;6.93;;;;;;;4.83;100.00;93989.69;10485137;28;20031;-72
2021/04/07 12:25:24;;;;;;;13.35;7.95;;;;;;;3.83;100.00;93992.78;10484558;28;20278;-71
2021/04/07 12:30:25;;;;;;;9.48;7.80;;;;;;;4.22;100.00;93995.31;10484072;28;20556;-73
2021/04/07 12:35:25;;;;;;;10.38;7.25;;;;;;;4.45;100.00;93987.00;10484529;28;20058;-73
2021/04/07 12:40:28;;;;;;;12.52;9.23;;;;;;;4.70;100.00;93987.44;10485415;28;20051;-73
2021/04/07 12:45:29;;;;;;;11.57;7.93;;;;;;;4.66;100.00;93995.16;10485318;28;20028;-73
2021/04/07 12:50:29;;;;;;;9.60;7.60;;;;;;;4.80;100.00;93990.22;10483947;28;20024;-73
2021/04/07 12:55:31;;;;;;;14.00;9.10;;;;;;;5.01;100.00;93987.66;10484275;28;20020;-73
2021/04/07 13:00:31;;;;;;;12.40;7.45;;;;;;;5.06;100.00;93987.72;10443102;28;20032;-73
2021/04/07 13:05:32;;;;;;;12.07;8.75;;;;;;;5.26;100.00;94005.66;10442161;28;20500;-73
2021/04/07 13:10:37;;;;;;;11.50;7.82;;;;;;;5.35;100.00;94012.13;10442207;28;20395;-73
2021/04/07 13:15:38;;;;;;;13.38;9.20;;;;;;;5.22;100.00;94010.72;10442967;28;20036;-73
2021/04/07 13:20:38;;;;;;;11.43;7.53;;;;;;;4.92;100.00;94006.00;10441784;28;20028;-73
2021/04/07 13:25:38;;;;;;;14.55;9.98;;;;;;;5.12;100.00;93986.66;10441195;28;20286;-73
2021/04/07 13:30:46;;;;;;;15.60;8.57;;;;;;;5.25;100.00;93985.44;10441750;28;20392;-74
2021/04/07 13:35:52;;;;;;;11.98;7.55;;;;;;;5.35;100.00;93990.81;10440975;28;20865;-73
2021/04/07 13:45:53;;;;;;;10.07;7.23;;;;;;;5.03;100.00;93989.03;10441256;28;20388;-73
2021/04/07 13:50:54;;;;;;;14.10;9.20;;;;;;;5.19;100.00;93987.28;10441115;28;20354;-73
2021/04/07 13:55:56;;;;;;;9.80;6.97;;;;;;;5.18;100.00;93988.31;10441377;28;20098;-73
2021/04/07 14:00:56;;;;;;;16.42;8.73;;;;;;;5.26;100.00;93990.50;10440991;28;20033;-73
2021/04/07 14:05:57;;;;;;;9.47;6.60;;;;;;;5.28;100.00;93991.03;10441121;28;20062;-73
2021/04/07 14:10:57;;;;;;;10.68;7.43;;;;;;;5.31;100.00;94009.16;10440631;28;20278;-73
2021/04/07 14:15:58;;;;;;;12.43;6.27;;;;;;;5.11;90.68;94019.72;10440067;28;20538;-73
2021/04/07 14:20:58;;;;;;;9.77;5.07;;;;;;;4.96;85.93;94026.50;10441027;28;20037;-73
2021/04/07 14:26:00;;;;;;;8.23;4.82;;;;;;;4.81;82.91;94049.56;10440571;28;20029;-73
2021/04/07 14:31:00;;;;;;;7.82;5.70;;;;;;;4.12;84.48;94054.50;10440438;28;20043;-73
2021/04/07 14:36:00;;;;;;;7.17;4.33;;;;;;;4.08;90.34;94056.84;10479260;28;20038;-73
2021/04/07 14:41:01;;;;;;;5.93;4.13;;;;;;;3.50;87.08;94037.84;10481333;28;20282;-73
2021/04/07 14:46:07;;;;;;;8.02;4.68;;;;;;;3.32;95.77;94051.38;10482796;28;20016;-73
2021/04/07 14:51:21;;;;;;;7.40;4.65;;;;;;;3.14;89.58;94074.50;10488625;28;20032;-73
2021/04/07 14:56:22;;;;;;;17.58;4.50;;;;;;;3.70;97.97;94071.81;10487399;28;20039;-73
2021/04/07 15:01:23;;;;;;;16.27;4.30;;;;;;;3.99;82.26;94087.59;10488004;28;20029;-73
2021/04/07 15:06:25;;;;;;;7.80;4.63;;;;;;;3.93;81.09;94099.22;10486407;28;20041;-73
2021/04/07 15:11:25;;;;;;;7.22;4.50;;;;;;;3.00;81.79;94105.91;10488167;28;20730;-72
2021/04/07 15:16:26;;;;;;;5.50;4.43;;;;;;;2.71;80.39;94126.38;10485397;28;20139;-72
2021/04/07 15:21:26;;;;;;;7.60;4.73;;;;;;;2.81;85.76;94134.50;10480167;28;20039;-72
2021/04/07 15:26:30;;;;;;;10.75;5.28;;;;;;;2.98;95.08;94152.28;10446086;28;20283;-72
2021/04/07 15:31:30;;;;;;;11.25;6.05;;;;;;;2.89;94.23;94165.16;10444867;28;20033;-72
2021/04/07 15:36:30;;;;;;;9.53;6.17;;;;;;;2.53;100.00;94165.31;10472212;28;20033;-73
2021/04/07 15:41:31;;;;;;;10.75;7.32;;;;;;;2.62;100.00;94162.28;10484662;28;20539;-72
2021/04/07 15:46:31;;;;;;;14.57;8.32;;;;;;;2.30;100.00;94168.88;10484561;28;20062;-72
2021/04/07 15:51:32;;;;;;;14.88;8.80;;;;;;;1.27;100.00;94176.44;10470573;28;20029;-73
2021/04/07 15:56:33;;;;;;;11.90;8.63;;;;;;;1.05;100.00;94187.56;10443851;28;20108;-73
2021/04/07 16:01:33;;;;;;;13.88;9.57;;;;;;;0.62;100.00;94196.53;10477645;28;20028;-73
2021/04/07 16:06:34;;;;;;;17.63;10.37;;;;;;;0.44;100.00;94208.75;10483724;28;20052;-72
2021/04/07 16:11:34;;;;;;;15.60;9.53;;;;;;;0.38;100.00;94222.88;10474295;28;20390;-73
2021/04/07 16:16:34;;;;;;;14.27;9.97;;;;;;;0.32;100.00;94239.59;10458297;28;20838;-73
2021/04/07 16:21:35;;;;;;;22.17;12.93;;;;;;;-0.06;100.00;94244.06;10455206;28;20044;-73
2021/04/07 16:26:36;;;;;;;27.10;13.30;;;;;;;0.00;100.00;94247.69;10462848;28;20024;-73
2021/04/07 16:31:36;;;;;;;21.53;13.50;;;;;;;-0.06;100.00;94275.75;10460762;28;20307;-73
2021/04/07 16:36:37;;;;;;;16.83;10.85;;;;;;;0.08;100.00;94289.66;10462017;28;20031;-74
2021/04/07 16:41:37;;;;;;;20.40;12.32;;;;;;;-0.07;100.00;94299.75;10452640;28;20017;-73
2021/04/07 16:46:37;;;;;;;18.38;12.30;;;;;;;-0.27;100.00;94300.75;10465440;28;20035;-73
2021/04/07 16:51:38;;;;;;;20.20;11.32;;;;;;;-0.59;100.00;94303.44;10460430;28;20039;-73
2021/04/07 16:56:39;;;;;;;23.13;11.70;;;;;;;-0.65;100.00;94311.41;10465207;28;20151;-72
2021/04/07 17:01:39;;;;;;;17.60;9.90;;;;;;;-0.87;100.00;94317.81;10458961;28;20305;-73
2021/04/07 17:06:39;;;;;;;14.07;8.77;;;;;;;-1.17;100.00;94338.69;10463826;28;20110;-73
2021/04/07 17:11:40;;;;;;;13.00;8.90;;;;;;;-1.33;100.00;94341.78;10468548;28;20036;-72
2021/04/07 17:16:41;;;;;;;13.93;8.40;;;;;;;-1.35;100.00;94333.25;10470375;28;20271;-73
2021/04/07 17:21:41;;;;;;;15.88;9.15;;;;;;;-1.44;100.00;94359.88;10464653;28;20035;-73
2021/04/07 17:26:42;;;;;;;9.37;6.17;;;;;;;-1.33;100.00;94352.34;10464854;28;20082;-72
2021/04/07 17:31:43;;;;;;;11.77;6.40;;;;;;;-1.16;100.00;94365.84;10471104;28;20282;-73
2021/04/07 17:36:43;;;;;;;8.35;5.72;;;;;;;-0.93;100.00;94368.00;10473111;28;20048;-73
2021/04/07 17:41:43;;;;;;;7.23;5.30;;;;;;;-0.81;100.00;94376.03;10465148;28;20032;-73
2021/04/07 17:46:44;;;;;;;8.82;5.43;;;;;;;-0.71;100.00;94394.88;10466633;28;20178;-73
2021/04/07 17:51:45;;;;;;;8.23;4.93;;;;;;;-0.60;100.00;94399.47;10463103;28;20162;-74
2021/04/07 17:56:46;;;;;;;7.95;5.88;;;;;;;-0.46;100.00;94417.88;10473104;28;20036;-73
2021/04/07 18:01:47;;;;;;;6.72;6.03;;;;;;;-0.41;100.00;94421.50;10463566;28;20411;-73
2021/04/07 18:06:47;;;;;;;11.52;7.18;;;;;;;-0.43;100.00;94444.66;10464218;28;20045;-73
2021/04/07 18:11:47;;;;;;;7.37;5.60;;;;;;;-0.60;100.00;94449.63;10460139;28;20328;-73
2021/04/07 18:16:48;;;;;;;10.87;6.63;;;;;;;-0.65;100.00;94446.81;10464516;28;20440;-73
2021/04/07 18:21:48;;;;;;;12.93;9.43;;;;;;;-0.70;100.00;94459.81;10464383;28;20479;-74
2021/04/07 18:26:49;;;;;;;11.67;8.00;;;;;;;-0.67;100.00;94469.97;10468305;28;20458;-73
2021/04/07 18:31:49;;;;;;;12.23;8.27;;;;;;;-0.61;100.00;94465.69;10467755;28;20282;-72
2021/04/07 18:36:50;;;;;;;9.80;7.32;;;;;;;-0.61;100.00;94463.03;10469823;28;20299;-74
2021/04/07 18:41:50;;;;;;;8.73;6.38;;;;;;;-0.44;100.00;94473.91;10467218;28;20024;-74
2021/04/07 18:46:51;;;;;;;14.13;6.87;;;;;;;-0.50;100.00;94480.03;10467120;28;20027;-74
2021/04/07 18:51:51;;;;;;;9.95;5.65;;;;;;;-0.49;100.00;94486.94;10465444;28;20271;-72
2021/04/07 18:56:51;;;;;;;9.23;5.90;;;;;;;-0.45;100.00;94494.22;10465138;28;20081;-73
2021/04/07 19:01:52;;;;;;;8.77;7.33;;;;;;;-0.48;100.00;94488.56;10463797;28;20030;-73
2021/04/07 19:06:52;;;;;;;7.77;6.50;;;;;;;-0.44;100.00;94497.69;10474828;28;20399;-73
2021/04/07 19:11:54;;;;;;;11.52;6.55;;;;;;;-0.29;100.00;94486.81;10482990;28;20279;-73
2021/04/07 19:16:55;;;;;;;12.10;7.15;;;;;;;-0.23;100.00;94504.47;10485733;28;20871;-73
2021/04/07 19:21:55;;;;;;;12.33;7.40;;;;;;;-0.09;100.00;94495.44;10486026;28;20107;-73
2021/04/07 19:26:55;;;;;;;10.10;7.55;;;;;;;-0.04;100.00;94502.75;10486314;28;20283;-73
2021/04/07 19:31:56;;;;;;;14.33;6.43;;;;;;;-0.02;100.00;94511.25;10445928;28;20458;-73
2021/04/07 19:36:56;;;;;;;11.20;7.18;;;;;;;-0.01;100.00;94508.41;10462024;28;20403;-74
2021/04/07 19:41:57;;;;;;;10.65;7.50;;;;;;;0.12;100.00;94519.91;10487266;28;20117;-73
2021/04/07 19:46:58;;;;;;;9.67;7.10;;;;;;;0.34;100.00;94520.38;10485111;28;20024;-73
2021/04/07 19:51:58;;;;;;;13.30;7.25;;;;;;;0.48;100.00;94516.59;10485086;28;20283;-74
2021/04/07 19:56:59;;;;;;;14.93;7.53;;;;;;;0.58;100.00;94513.47;10473178;28;20032;-74
2021/04/07 20:01:59;;;;;;;10.60;8.10;;;;;;;0.38;100.00;94513.66;10483771;28;21171;-73
2021/04/07 20:07:00;;;;;;;13.68;8.20;;;;;;;0.30;100.00;94522.63;10485261;28;20048;-74
2021/04/07 20:12:01;;;;;;;9.13;7.22;;;;;;;0.28;100.00;94518.59;10484765;28;20028;-72
2021/04/07 20:17:01;;;;;;;12.90;8.38;;;;;;;0.26;100.00;94529.38;10488010;28;20062;-72
2021/04/07 20:22:02;;;;;;;12.35;7.80;;;;;;;0.23;100.00;94531.66;10485680;28;20047;-72
2021/04/07 20:27:04;;;;;;;12.17;8.63;;;;;;;0.21;100.00;94526.56;10489046;28;20532;-72
2021/04/07 20:32:04;;;;;;;12.48;7.82;;;;;;;0.53;100.00;94536.31;10488395;28;20074;-72
2021/04/07 20:37:05;;;;;;;12.38;8.10;;;;;;;0.66;100.00;94549.44;10487529;28;20473;-72
2021/04/07 20:42:05;;;;;;;13.60;8.00;;;;;;;0.77;100.00;94547.94;10488885;28;20411;-72
2021/04/07 20:47:06;;;;;;;12.30;7.85;;;;;;;0.94;100.00;94554.28;10488089;28;20619;-72
2021/04/07 20:52:08;;;;;;;14.60;8.23;;;;;;;1.02;100.00;94569.09;10452961;28;20033;-71
2021/04/07 20:57:08;;;;;;;9.75;7.03;;;;;;;1.02;100.00;94572.53;10445938;28;20159;-72
2021/04/07 21:02:09;;;;;;;11.10;6.97;;;;;;;1.04;100.00;94569.66;10446245;28;20030;-72
2021/04/07 21:07:09;;;;;;;13.07;7.38;;;;;;;1.04;100.00;94569.66;10445592;28;20071;-72
2021/04/07 21:12:10;;;;;;;13.33;7.23;;;;;;;1.03;100.00;94578.63;10443783;28;20021;-72
2021/04/07 21:17:10;;;;;;;16.20;9.10;;;;;;;1.02;100.00;94579.66;10441957;28;20291;-72
2021/04/07 21:22:11;;;;;;;9.02;6.88;;;;;;;0.98;100.00;94592.50;10441776;28;20028;-71
2021/04/07 21:27:11;;;;;;;10.63;7.13;;;;;;;1.06;100.00;94588.78;10442165;28;20021;-71
2021/04/07 21:32:13;;;;;;;12.40;7.70;;;;;;;1.02;100.00;94595.53;10442327;28;20044;-71
2021/04/07 21:37:13;;;;;;;13.75;8.35;;;;;;;1.04;100.00;94600.63;10441709;28;20036;-72
2021/04/07 21:42:13;;;;;;;13.20;7.28;;;;;;;1.14;100.00;94606.22;10442047;28;20033;-72
2021/04/07 21:47:14;;;;;;;12.65;7.68;;;;;;;1.10;100.00;94597.88;10439852;28;20031;-72
2021/04/07 21:52:14;;;;;;;11.27;7.30;;;;;;;1.13;100.00;94600.13;10443628;28;20040;-77
2021/04/07 21:57:15;;;;;;;12.32;7.95;;;;;;;1.04;100.00;94608.56;10449167;28;20095;-76
2021/04/07 22:02:16;;;;;;;14.73;8.50;;;;;;;0.77;100.00;94622.78;10452797;28;20029;-77
2021/04/07 22:07:16;;;;;;;14.70;7.72;;;;;;;0.77;100.00;94627.28;10452798;28;20045;-77
2021/04/07 22:12:17;;;;;;;13.80;7.65;;;;;;;0.72;100.00;94616.53;10453291;28;20033;-77
2021/04/07 22:17:18;;;;;;;13.82;8.05;;;;;;;0.89;100.00;94632.69;10453336;28;20029;-77
2021/04/07 22:22:18;;;;;;;13.45;8.10;;;;;;;0.90;100.00;94642.25;10476263;28;20029;-76
2021/04/07 22:27:19;;;;;;;15.90;9.25;;;;;;;0.96;100.00;94654.59;10451808;28;20029;-76
2021/04/07 22:32:19;;;;;;;16.98;9.38;;;;;;;1.03;100.00;94658.00;10452814;28;20033;-76
2021/04/07 22:37:20;;;;;;;14.50;8.25;;;;;;;0.95;100.00;94652.97;10452385;28;20029;-76
2021/04/07 22:42:20;;;;;;;16.80;8.63;;;;;;;0.82;100.00;94669.75;10447650;28;20029;-76
2021/04/07 22:47:20;;;;;;;14.00;10.83;;;;;;;0.75;100.00;94653.13;10448986;28;20150;-76
2021/04/07 22:52:21;;;;;;;17.27;8.83;;;;;;;0.84;100.00;94655.31;10449306;28;20295;-76
2021/04/07 22:57:21;;;;;;;16.55;9.07;;;;;;;0.51;100.00;94655.50;10449936;28;20307;-76
2021/04/07 23:02:22;;;;;;;17.90;8.63;;;;;;;0.68;100.00;94650.53;10450652;28;20385;-76
2021/04/07 23:07:22;;;;;;;15.00;9.77;;;;;;;0.70;100.00;94655.59;10451237;28;20428;-76
2021/04/07 23:12:23;;;;;;;12.50;8.63;;;;;;;0.25;100.00;94651.16;10453264;28;20128;-76
2021/04/07 23:17:23;;;;;;;15.77;10.82;;;;;;;0.14;100.00;94665.84;10452761;28;20028;-76